Time;durP1;ratioP1;P1;durP2;ratioP2;P2;SDS_P1;SDS_P2;PMS_P1;PMS_P2;Temp;Humidity;BMP_temperature;BMP_pressure;BME280_temperature;BME280_humidity;BME280_pressure;Samples;Min_cycle;Max_cycle;Signal;HPM_P1;HPM_P2
2023/10/13 00:01:21;;;;;;;8.70;4.47;;;;;;;;;;5114957;28;20047;-52
2023/10/13 00:03:48;;;;;;;9.95;4.63;;;;;;;;;;5115100;28;20718;-55
2023/10/13 00:06:15;;;;;;;8.85;4.30;;;;;;;;;;5113841;28;20535;-53
2023/10/13 00:08:42;;;;;;;8.60;4.22;;;;;;;;;;5111812;28;20043;-56
2023/10/13 00:11:13;;;;;;;8.82;3.70;;;;;;;;;;5114106;28;20047;-55
2023/10/13 00:13:50;;;;;;;8.90;3.78;;;;;;;;;;5112917;28;20058;-54
2023/10/13 00:16:21;;;;;;;6.53;3.58;;;;;;;;;;5112379;28;20043;-55
2023/10/13 00:18:48;;;;;;;7.85;3.45;;;;;;;;;;5111677;28;20040;-55
2023/10/13 00:21:20;;;;;;;7.80;3.38;;;;;;;;;;5112696;28;20039;-55
2023/10/13 00:23:53;;;;;;;6.80;3.15;;;;;;;;;;5112760;28;20040;-51
2023/10/13 00:26:23;;;;;;;9.18;3.55;;;;;;;;;;5109434;28;20043;-50
2023/10/13 00:28:58;;;;;;;;;;;;;;;;;;5095484;28;20075;-49
2023/10/13 00:31:28;;;;;;;6.85;2.90;;;;;;;;;;5095959;28;20364;-52
2023/10/13 00:34:01;;;;;;;7.80;3.20;;;;;;;;;;5093951;28;20116;-51
2023/10/13 00:36:27;;;;;;;7.68;3.70;;;;;;;;;;5112321;28;20113;-51
2023/10/13 00:38:56;;;;;;;6.97;2.95;;;;;;;;;;5114562;28;20406;-52
2023/10/13 00:41:49;;;;;;;9.60;3.05;;;;;;;;;;5114108;28;20574;-54
2023/10/13 00:44:10;;;;;;;9.43;3.22;;;;;;;;;;5111271;27;20043;-54
2023/10/13 00:46:38;;;;;;;7.90;2.70;;;;;;;;;;5111249;28;20040;-56
2023/10/13 00:49:08;;;;;;;6.20;3.00;;;;;;;;;;5106670;27;20039;-51
2023/10/13 00:51:34;;;;;;;8.60;4.05;;;;;;;;;;5104634;28;20046;-53
2023/10/13 00:54:11;;;;;;;9.57;3.20;;;;;;;;;;5104095;27;20100;-50
2023/10/13 00:56:41;;;;;;;6.47;3.03;;;;;;;;;;5105754;28;20514;-52
2023/10/13 00:59:09;;;;;;;6.68;3.17;;;;;;;;;;5111109;28;20040;-51
2023/10/13 01:01:36;;;;;;;6.82;3.10;;;;;;;;;;5104751;28;20487;-53
2023/10/13 01:04:05;;;;;;;6.13;3.03;;;;;;;;;;5093841;28;20048;-57
2023/10/13 01:06:31;;;;;;;8.00;3.55;;;;;;;;;;5110490;28;20530;-53
2023/10/13 01:09:10;;;;;;;7.15;3.00;;;;;;;;;;5113702;28;20051;-51
2023/10/13 01:11:36;;;;;;;9.55;3.40;;;;;;;;;;5105408;28;20044;-53
2023/10/13 01:14:04;;;;;;;8.63;3.55;;;;;;;;;;5099700;28;20051;-53
2023/10/13 01:16:30;;;;;;;8.80;2.97;;;;;;;;;;5105336;28;20461;-54
2023/10/13 01:18:59;;;;;;;9.35;3.33;;;;;;;;;;5105636;28;20039;-51
2023/10/13 01:21:27;;;;;;;9.05;3.10;;;;;;;;;;5113185;28;20435;-55
2023/10/13 01:23:55;;;;;;;8.85;3.30;;;;;;;;;;5110337;28;20044;-52
2023/10/13 01:26:23;;;;;;;10.40;3.70;;;;;;;;;;5108734;28;20134;-50
2023/10/13 01:28:51;;;;;;;8.55;3.75;;;;;;;;;;5100012;28;20052;-53
2023/10/13 01:34:01;;;;;;;8.00;3.28;;;;;;;;;;5105337;28;20047;-51
2023/10/13 01:36:27;;;;;;;8.07;3.30;;;;;;;;;;5111668;28;20051;-52
2023/10/13 01:38:55;;;;;;;9.68;5.40;;;;;;;;;;5109520;28;20056;-50
2023/10/13 01:41:22;;;;;;;9.85;4.65;;;;;;;;;;5107946;28;20127;-52
2023/10/13 01:43:49;;;;;;;11.63;5.72;;;;;;;;;;5107125;28;20040;-53
2023/10/13 01:46:15;;;;;;;10.55;5.38;;;;;;;;;;5108797;28;20043;-51
2023/10/13 01:48:44;;;;;;;11.23;5.72;;;;;;;;;;5113014;28;20058;-54
2023/10/13 01:51:10;;;;;;;10.90;5.55;;;;;;;;;;5113032;28;20146;-50
2023/10/13 01:53:37;;;;;;;12.70;5.75;;;;;;;;;;5112619;28;20126;-54
2023/10/13 01:56:09;;;;;;;14.27;5.80;;;;;;;;;;5112863;28;20051;-54
2023/10/13 01:58:37;;;;;;;9.60;4.95;;;;;;;;;;5112487;28;20043;-50
2023/10/13 02:01:04;;;;;;;8.70;5.13;;;;;;;;;;5112656;28;20048;-52
2023/10/13 02:03:31;;;;;;;12.82;5.15;;;;;;;;;;5104325;28;20059;-54
2023/10/13 02:06:03;;;;;;;7.50;3.63;;;;;;;;;;5106290;28;20468;-54
2023/10/13 02:08:29;;;;;;;8.93;4.40;;;;;;;;;;5106926;28;20098;-52
2023/10/13 02:10:56;;;;;;;7.38;3.80;;;;;;;;;;5108930;28;20131;-53
2023/10/13 02:13:26;;;;;;;9.57;4.53;;;;;;;;;;5107627;28;20507;-53
2023/10/13 02:15:56;;;;;;;9.18;3.97;;;;;;;;;;5102335;28;20044;-52
2023/10/13 02:18:27;;;;;;;10.95;4.60;;;;;;;;;;5107905;28;20046;-51
2023/10/13 02:20:55;;;;;;;13.13;5.50;;;;;;;;;;5109185;28;20075;-58
2023/10/13 02:23:24;;;;;;;10.98;5.30;;;;;;;;;;5109089;28;20086;-53
2023/10/13 02:26:00;;;;;;;9.40;5.57;;;;;;;;;;5105679;27;20071;-51
2023/10/13 02:28:29;;;;;;;10.82;5.25;;;;;;;;;;5101186;28;20725;-52
2023/10/13 02:30:57;;;;;;;11.23;5.43;;;;;;;;;;5112782;28;20409;-51
2023/10/13 02:33:29;;;;;;;11.32;5.72;;;;;;;;;;5112592;28;20063;-49
2023/10/13 02:35:57;;;;;;;11.93;5.50;;;;;;;;;;5111960;28;20048;-51
2023/10/13 02:38:34;;;;;;;12.02;6.18;;;;;;;;;;5111816;28;20101;-51
2023/10/13 02:41:05;;;;;;;12.68;6.05;;;;;;;;;;5111619;28;20126;-49
2023/10/13 02:43:34;;;;;;;15.20;6.20;;;;;;;;;;5107826;28;20047;-53
2023/10/13 02:46:01;;;;;;;13.57;5.85;;;;;;;;;;5112434;28;20081;-54
2023/10/13 02:48:30;;;;;;;8.75;5.90;;;;;;;;;;5107249;27;20043;-50
2023/10/13 02:50:57;;;;;;;12.18;5.10;;;;;;;;;;5108555;28;20040;-52
2023/10/13 02:53:28;;;;;;;10.35;5.40;;;;;;;;;;5105440;28;20065;-50
2023/10/13 02:55:56;;;;;;;9.75;5.40;;;;;;;;;;5109701;28;20057;-53
2023/10/13 02:58:37;;;;;;;9.93;4.78;;;;;;;;;;5111338;28;20048;-53
2023/10/13 03:01:10;;;;;;;8.82;4.53;;;;;;;;;;5103183;28;20044;-51
2023/10/13 03:03:36;;;;;;;8.75;5.10;;;;;;;;;;5111055;28;20039;-52
2023/10/13 03:06:02;;;;;;;8.73;4.78;;;;;;;;;;5104465;28;20050;-55
2023/10/13 03:08:31;;;;;;;8.82;4.57;;;;;;;;;;5111545;28;20130;-49
2023/10/13 03:10:56;;;;;;;11.10;4.47;;;;;;;;;;5111755;28;20082;-48
2023/10/13 03:13:23;;;;;;;11.15;4.55;;;;;;;;;;5111391;28;20075;-49
2023/10/13 03:15:48;;;;;;;11.88;4.85;;;;;;;;;;5109793;28;20036;-52
2023/10/13 03:18:18;;;;;;;10.30;5.10;;;;;;;;;;5108415;28;20194;-48
2023/10/13 03:20:43;;;;;;;12.30;5.22;;;;;;;;;;5107410;28;20040;-50
2023/10/13 03:23:10;;;;;;;9.10;4.53;;;;;;;;;;5106895;28;20050;-49
2023/10/13 03:25:42;;;;;;;11.63;5.28;;;;;;;;;;5111720;28;20074;-52
2023/10/13 03:28:12;;;;;;;8.80;5.30;;;;;;;;;;5111684;28;20071;-55
2023/10/13 03:30:38;;;;;;;12.32;5.30;;;;;;;;;;5111816;28;20048;-52
2023/10/13 03:33:08;;;;;;;9.18;5.20;;;;;;;;;;5111674;28;20039;-51
2023/10/13 03:35:41;;;;;;;9.65;5.30;;;;;;;;;;5103332;28;20491;-51
2023/10/13 03:38:16;;;;;;;10.43;5.68;;;;;;;;;;5104342;28;20036;-57
2023/10/13 03:40:48;;;;;;;10.32;5.53;;;;;;;;;;5106883;28;20044;-58
2023/10/13 03:43:16;;;;;;;11.02;5.53;;;;;;;;;;5107673;28;20446;-54
2023/10/13 03:46:00;;;;;;;10.98;5.35;;;;;;;;;;5109970;28;20046;-52
2023/10/13 03:48:31;;;;;;;11.23;5.00;;;;;;;;;;5110751;28;20044;-52
2023/10/13 03:51:06;;;;;;;7.68;4.78;;;;;;;;;;5109075;27;20046;-51
2023/10/13 03:53:34;;;;;;;9.63;4.60;;;;;;;;;;5105267;27;20044;-52
2023/10/13 03:56:12;;;;;;;9.95;5.18;;;;;;;;;;5114546;28;20062;-54
2023/10/13 03:58:42;;;;;;;10.07;5.07;;;;;;;;;;5107881;28;20100;-49
2023/10/13 04:01:12;;;;;;;12.82;5.15;;;;;;;;;;5110496;28;20040;-50
2023/10/13 04:03:56;;;;;;;;;;;;;;;;;;5097337;28;20056;-58
2023/10/13 04:06:48;;;;;;;11.15;4.82;;;;;;;;;;5109175;28;20414;-55
2023/10/13 04:15:15;;;;;;;14.95;6.03;;;;;;;;;;5107956;28;20172;-49
2023/10/13 04:17:44;;;;;;;10.20;5.47;;;;;;;;;;5112767;28;20051;-51
2023/10/13 04:20:19;;;;;;;11.40;6.05;;;;;;;;;;5114836;28;20113;-53
2023/10/13 04:25:38;;;;;;;12.25;5.68;;;;;;;;;;5113941;28;20054;-48
2023/10/13 04:28:15;;;;;;;9.70;5.35;;;;;;;;;;5114433;28;20067;-52
2023/10/13 04:30:57;;;;;;;11.20;5.47;;;;;;;;;;5110011;28;20040;-52
2023/10/13 04:33:35;;;;;;;11.10;5.53;;;;;;;;;;5111405;28;20089;-48
2023/10/13 04:36:13;;;;;;;10.70;5.30;;;;;;;;;;5105744;28;20079;-49
2023/10/13 04:38:56;;;;;;;10.77;4.95;;;;;;;;;;5108209;28;20036;-49
2023/10/13 04:41:22;;;;;;;9.48;4.88;;;;;;;;;;5102162;28;20048;-51
2023/10/13 04:44:04;;;;;;;12.80;4.80;;;;;;;;;;5114509;28;20044;-53
2023/10/13 04:46:53;;;;;;;9.07;4.75;;;;;;;;;;5113156;28;20947;-56
2023/10/13 04:49:28;;;;;;;10.52;4.45;;;;;;;;;;5114326;28;20055;-50
2023/10/13 04:52:04;;;;;;;8.00;4.15;;;;;;;;;;5113047;28;20605;-50
2023/10/13 04:54:45;;;;;;;10.95;4.32;;;;;;;;;;5114057;28;20716;-50
2023/10/13 04:57:25;;;;;;;11.77;4.25;;;;;;;;;;5105210;28;20098;-53
2023/10/13 05:03:17;;;;;;;9.77;4.68;;;;;;;;;;5102297;28;20093;-49
2023/10/13 05:06:10;;;;;;;12.05;5.20;;;;;;;;;;5111757;28;20052;-50
2023/10/13 05:49:53;;;;;;;8.77;4.55;;;;;;;;;;5090204;28;20046;-51
2023/10/13 05:52:19;;;;;;;8.75;4.07;;;;;;;;;;5112665;28;20076;-49
2023/10/13 06:30:28;;;;;;;;;;;;;;;;;;5077693;28;20082;-51
2023/10/13 06:32:56;;;;;;;10.73;4.47;;;;;;;;;;5108854;28;20272;-52
2023/10/13 06:35:23;;;;;;;14.35;4.35;;;;;;;;;;5092009;28;20076;-55
2023/10/13 06:37:50;;;;;;;9.65;4.30;;;;;;;;;;5103063;28;20040;-52
2023/10/13 06:40:25;;;;;;;9.23;4.18;;;;;;;;;;5106269;28;20055;-55
2023/10/13 06:42:53;;;;;;;14.05;5.38;;;;;;;;;;5103199;28;20056;-52
2023/10/13 06:45:21;;;;;;;11.43;4.00;;;;;;;;;;5112254;28;20056;-55
2023/10/13 06:47:53;;;;;;;13.63;4.88;;;;;;;;;;5103956;28;20040;-54
2023/10/13 06:50:24;;;;;;;12.48;4.80;;;;;;;;;;5112493;28;20415;-52
2023/10/13 06:52:54;;;;;;;9.60;4.82;;;;;;;;;;5109531;28;20482;-51
2023/10/13 06:55:24;;;;;;;;;;;;;;;;;;5092448;28;20406;-51
2023/10/13 06:57:51;;;;;;;8.63;4.30;;;;;;;;;;5094119;28;20007;-55
2023/10/13 07:00:28;;;;;;;9.27;4.75;;;;;;;;;;5097525;28;20151;-52
2023/10/13 07:03:05;;;;;;;7.40;4.05;;;;;;;;;;5111518;28;20054;-54
2023/10/13 07:05:35;;;;;;;12.35;4.72;;;;;;;;;;5112139;28;20410;-51
2023/10/13 07:08:04;;;;;;;10.48;5.10;;;;;;;;;;5091319;28;20460;-52
2023/10/13 07:10:35;;;;;;;11.52;4.43;;;;;;;;;;5100017;28;20063;-55
2023/10/13 07:13:07;;;;;;;11.82;5.45;;;;;;;;;;5103666;28;20044;-55
2023/10/13 07:15:44;;;;;;;12.75;4.55;;;;;;;;;;5103354;28;20047;-55
2023/10/13 07:18:12;;;;;;;10.93;4.57;;;;;;;;;;5100523;28;20051;-54
2023/10/13 07:20:44;;;;;;;10.93;5.60;;;;;;;;;;5100085;28;20043;-56
2023/10/13 07:23:17;;;;;;;13.63;4.82;;;;;;;;;;5096683;28;20130;-55
2023/10/13 07:25:53;;;;;;;16.27;4.80;;;;;;;;;;5102058;28;20051;-54
2023/10/13 07:28:20;;;;;;;12.30;4.60;;;;;;;;;;5106690;28;20044;-54
2023/10/13 07:31:11;;;;;;;12.85;4.60;;;;;;;;;;5112136;28;20135;-51
2023/10/13 07:33:37;;;;;;;10.55;4.55;;;;;;;;;;5102961;28;20483;-54
2023/10/13 07:36:15;;;;;;;8.15;4.15;;;;;;;;;;5111753;28;20057;-56
2023/10/13 07:38:43;;;;;;;9.60;3.92;;;;;;;;;;5102149;28;20052;-55
2023/10/13 07:41:09;;;;;;;9.52;3.85;;;;;;;;;;5096463;28;20050;-52
2023/10/13 07:43:37;;;;;;;13.25;4.43;;;;;;;;;;5102645;28;20131;-55
2023/10/13 07:46:09;;;;;;;10.02;4.22;;;;;;;;;;5091502;28;20074;-54
2023/10/13 07:48:37;;;;;;;10.07;4.20;;;;;;;;;;5100161;28;20055;-52
2023/10/13 07:51:11;;;;;;;9.48;3.97;;;;;;;;;;5111805;28;20135;-57
2023/10/13 07:53:40;;;;;;;8.95;4.00;;;;;;;;;;5110718;28;20047;-53
2023/10/13 07:56:08;;;;;;;11.35;4.68;;;;;;;;;;5108450;28;20044;-55
2023/10/13 07:58:35;;;;;;;9.40;4.22;;;;;;;;;;5109080;28;20146;-54
2023/10/13 08:01:08;;;;;;;12.55;4.65;;;;;;;;;;5109534;28;20036;-51
2023/10/13 08:03:37;;;;;;;11.85;4.22;;;;;;;;;;5109893;28;20086;-59
2023/10/13 08:06:19;;;;;;;10.52;3.88;;;;;;;;;;5099330;28;20146;-52
2023/10/13 08:08:49;;;;;;;10.57;4.22;;;;;;;;;;5106190;28;20072;-52
2023/10/13 08:11:26;;;;;;;8.77;4.53;;;;;;;;;;5103202;28;20047;-49
2023/10/13 08:13:55;;;;;;;9.93;3.83;;;;;;;;;;5107471;28;20044;-53
2023/10/13 08:16:22;;;;;;;8.05;3.58;;;;;;;;;;5105688;28;20059;-54
2023/10/13 08:18:50;;;;;;;8.60;3.50;;;;;;;;;;5105863;28;20131;-53
2023/10/13 08:21:22;;;;;;;10.15;4.13;;;;;;;;;;5110392;28;20039;-49
2023/10/13 08:23:59;;;;;;;9.20;3.63;;;;;;;;;;5108878;28;20138;-52
2023/10/13 08:32:14;;;;;;;8.45;3.78;;;;;;;;;;5061791;28;20091;-50
2023/10/13 08:34:59;;;;;;;8.57;3.58;;;;;;;;;;5105277;28;20046;-52
2023/10/13 08:37:33;;;;;;;11.07;3.83;;;;;;;;;;5109741;28;20051;-52
2023/10/13 08:42:52;;;;;;;10.85;4.00;;;;;;;;;;5108651;28;20062;-51
2023/10/13 08:45:53;;;;;;;10.70;3.60;;;;;;;;;;5109504;28;20055;-54
2023/10/13 08:48:14;;;;;;;11.57;3.80;;;;;;;;;;5106977;28;20054;-49
2023/10/13 08:50:52;;;;;;;8.32;3.63;;;;;;;;;;5105179;28;20418;-51
2023/10/13 08:53:31;;;;;;;11.15;4.13;;;;;;;;;;5109822;28;20052;-52
2023/10/13 08:56:05;;;;;;;12.15;4.60;;;;;;;;;;5110744;28;20039;-54
2023/10/13 09:01:34;;;;;;;12.68;4.00;;;;;;;;;;5108319;28;20144;-53
2023/10/13 09:04:21;;;;;;;10.13;3.45;;;;;;;;;;5101708;28;20491;-54
2023/10/13 09:07:00;;;;;;;9.73;3.78;;;;;;;;;;5104472;28;20511;-51
2023/10/13 09:09:34;;;;;;;10.55;3.88;;;;;;;;;;5104219;28;20066;-53
2023/10/13 09:12:08;;;;;;;10.75;4.35;;;;;;;;;;5105081;28;20090;-54
2023/10/13 09:14:37;;;;;;;10.68;3.72;;;;;;;;;;5106467;28;20298;-56
2023/10/13 09:17:09;;;;;;;9.23;3.38;;;;;;;;;;5107169;28;20177;-51
2023/10/13 09:19:55;;;;;;;10.98;3.90;;;;;;;;;;5106676;28;20048;-52
2023/10/13 09:22:27;;;;;;;10.88;3.38;;;;;;;;;;5102873;28;20094;-50
2023/10/13 09:25:00;;;;;;;8.43;3.10;;;;;;;;;;5101611;28;20048;-55
2023/10/13 09:27:27;;;;;;;8.30;3.28;;;;;;;;;;5108665;28;20066;-52
2023/10/13 09:30:01;;;;;;;7.57;3.50;;;;;;;;;;5110017;28;20095;-56
2023/10/13 09:32:27;;;;;;;9.13;3.78;;;;;;;;;;5106033;28;20055;-54
2023/10/13 09:34:54;;;;;;;12.50;3.85;;;;;;;;;;5109048;28;20274;-54
2023/10/13 09:37:21;;;;;;;8.70;3.45;;;;;;;;;;5107831;28;20043;-49
2023/10/13 09:39:52;;;;;;;12.30;3.67;;;;;;;;;;5106508;28;20046;-54
2023/10/13 09:42:23;;;;;;;8.90;3.58;;;;;;;;;;5106333;28;20470;-55
2023/10/13 09:44:58;;;;;;;13.35;3.55;;;;;;;;;;5106315;28;20088;-56
2023/10/13 09:47:32;;;;;;;9.45;3.50;;;;;;;;;;5107863;28;20047;-54
2023/10/13 09:50:05;;;;;;;9.85;3.10;;;;;;;;;;5106826;28;20483;-54
2023/10/13 09:52:31;;;;;;;11.50;3.13;;;;;;;;;;5109750;28;20050;-54
2023/10/13 09:55:13;;;;;;;8.73;3.45;;;;;;;;;;5110050;28;20499;-53
2023/10/13 09:57:48;;;;;;;8.02;2.83;;;;;;;;;;5109827;28;20480;-49
2023/10/13 10:00:46;;;;;;;13.38;3.38;;;;;;;;;;5109617;28;20047;-52
2023/10/13 10:03:29;;;;;;;10.40;3.75;;;;;;;;;;5105724;28;20051;-54
2023/10/13 10:06:06;;;;;;;8.23;3.28;;;;;;;;;;5109649;28;20052;-55
2023/10/13 10:08:38;;;;;;;10.80;3.63;;;;;;;;;;5109143;28;20059;-50
2023/10/13 10:11:46;;;;;;;10.07;3.97;;;;;;;;;;5107296;28;20052;-51
2023/10/13 10:14:19;;;;;;;9.07;3.45;;;;;;;;;;5080091;28;20059;-51
2023/10/13 10:16:59;;;;;;;11.88;4.20;;;;;;;;;;5109568;28;20491;-55
2023/10/13 10:19:26;;;;;;;9.27;4.20;;;;;;;;;;5108976;28;20180;-53
2023/10/13 10:22:04;;;;;;;10.52;3.42;;;;;;;;;;5107065;28;20051;-52
2023/10/13 10:24:33;;;;;;;10.40;3.50;;;;;;;;;;5105697;28;20055;-53
2023/10/13 10:27:00;;;;;;;10.05;3.80;;;;;;;;;;5109217;28;20050;-54
2023/10/13 10:29:32;;;;;;;9.02;3.40;;;;;;;;;;5108860;28;20062;-56
2023/10/13 10:31:59;;;;;;;8.98;3.05;;;;;;;;;;5106354;28;20172;-55
2023/10/13 10:34:32;;;;;;;10.70;3.10;;;;;;;;;;5105339;28;20044;-55
2023/10/13 10:36:59;;;;;;;10.77;2.90;;;;;;;;;;5108547;28;20047;-53
2023/10/13 10:39:44;;;;;;;8.15;3.10;;;;;;;;;;5104905;28;20415;-51
2023/10/13 10:42:23;;;;;;;6.50;2.83;;;;;;;;;;5107165;28;20045;-51
2023/10/13 10:44:56;;;;;;;6.60;3.13;;;;;;;;;;5108273;28;20051;-52
2023/10/13 10:47:32;;;;;;;9.57;3.65;;;;;;;;;;5109285;28;20043;-55
2023/10/13 10:50:00;;;;;;;9.85;3.03;;;;;;;;;;5108698;28;20414;-53
2023/10/13 10:52:36;;;;;;;9.00;3.10;;;;;;;;;;5104866;28;20048;-57
2023/10/13 10:55:06;;;;;;;9.63;3.00;;;;;;;;;;5106546;28;20043;-56
2023/10/13 10:57:37;;;;;;;10.48;3.22;;;;;;;;;;5108942;28;20448;-57
2023/10/13 11:00:15;;;;;;;6.22;2.47;;;;;;;;;;5108742;28;20059;-55
2023/10/13 11:02:41;;;;;;;8.65;2.28;;;;;;;;;;5106504;28;20437;-56
2023/10/13 11:05:09;;;;;;;6.88;2.30;;;;;;;;;;5107884;28;20040;-53
2023/10/13 11:07:36;;;;;;;7.97;2.80;;;;;;;;;;5105136;28;20105;-55
2023/10/13 11:10:11;;;;;;;7.97;2.85;;;;;;;;;;5102459;28;20044;-56
2023/10/13 11:12:39;;;;;;;7.45;2.35;;;;;;;;;;5107826;28;20047;-57
2023/10/13 11:15:14;;;;;;;8.13;2.40;;;;;;;;;;5105878;28;20044;-55
2023/10/13 11:17:43;;;;;;;10.77;3.30;;;;;;;;;;5105435;28;20057;-51
2023/10/13 11:20:17;;;;;;;7.83;2.47;;;;;;;;;;5106584;28;20054;-52
2023/10/13 11:22:47;;;;;;;10.00;3.30;;;;;;;;;;5103928;28;20059;-53
2023/10/13 11:25:23;;;;;;;12.05;3.28;;;;;;;;;;5107485;28;20442;-55
2023/10/13 11:27:59;;;;;;;8.93;2.70;;;;;;;;;;5105761;28;20429;-54
2023/10/13 11:30:31;;;;;;;8.80;2.83;;;;;;;;;;5102800;28;20051;-53
2023/10/13 11:32:59;;;;;;;11.15;2.63;;;;;;;;;;5105098;28;20053;-53
2023/10/13 11:35:29;;;;;;;11.15;2.78;;;;;;;;;;5101021;28;20052;-53
2023/10/13 11:38:03;;;;;;;;;;;;;;;;;;5107757;28;20215;-54
2023/10/13 11:40:44;;;;;;;7.28;2.60;;;;;;;;;;5106416;28;19920;-57
2023/10/13 11:43:13;;;;;;;7.78;2.75;;;;;;;;;;5105510;28;20040;-53
2023/10/13 11:45:55;;;;;;;16.10;3.53;;;;;;;;;;5107901;28;20040;-53
2023/10/13 11:48:34;;;;;;;12.77;5.18;;;;;;;;;;5105108;28;20050;-54
2023/10/13 11:51:05;;;;;;;10.10;3.13;;;;;;;;;;5106232;28;20044;-50
2023/10/13 11:53:32;;;;;;;10.20;2.90;;;;;;;;;;5107114;28;20367;-56
2023/10/13 11:55:59;;;;;;;13.80;2.80;;;;;;;;;;5110553;28;20050;-55
2023/10/13 11:58:26;;;;;;;12.45;3.00;;;;;;;;;;5111752;28;20483;-52
2023/10/13 12:01:07;;;;;;;9.88;3.10;;;;;;;;;;5107122;28;20668;-53
2023/10/13 12:06:22;;;;;;;7.57;2.60;;;;;;;;;;5109486;28;20168;-55
2023/10/13 12:08:52;;;;;;;8.57;2.72;;;;;;;;;;5110465;28;20426;-54
2023/10/13 12:11:32;;;;;;;8.43;3.65;;;;;;;;;;5105952;28;20418;-53
2023/10/13 12:13:58;;;;;;;8.23;4.18;;;;;;;;;;5111617;28;20411;-56
2023/10/13 12:16:34;;;;;;;10.15;2.80;;;;;;;;;;5108277;28;20179;-51
2023/10/13 12:19:01;;;;;;;9.25;3.30;;;;;;;;;;5107861;28;20050;-50
2023/10/13 12:21:29;;;;;;;10.73;3.03;;;;;;;;;;5107938;28;20066;-54
2023/10/13 12:23:55;;;;;;;8.15;2.90;;;;;;;;;;5111583;28;20055;-53
2023/10/13 12:26:32;;;;;;;7.82;2.92;;;;;;;;;;5111864;28;20052;-54
2023/10/13 12:29:06;;;;;;;9.23;3.00;;;;;;;;;;5109180;28;20127;-56
2023/10/13 12:31:38;;;;;;;8.32;2.90;;;;;;;;;;5111695;28;20051;-55
2023/10/13 12:34:14;;;;;;;9.68;2.70;;;;;;;;;;5109823;28;20040;-55
2023/10/13 12:36:41;;;;;;;8.30;3.58;;;;;;;;;;5105892;28;20051;-53
2023/10/13 12:50:14;;;;;;;10.73;3.08;;;;;;;;;;5111700;28;20188;-51
2023/10/13 12:52:45;;;;;;;10.85;2.85;;;;;;;;;;5107921;28;20039;-55
2023/10/13 12:55:13;;;;;;;9.65;3.13;;;;;;;;;;5109425;28;20040;-50
2023/10/13 12:57:44;;;;;;;9.82;2.90;;;;;;;;;;5110675;28;20297;-52
2023/10/13 13:00:23;;;;;;;10.07;3.22;;;;;;;;;;5109049;28;20043;-54
2023/10/13 13:02:55;;;;;;;7.07;2.75;;;;;;;;;;5108046;28;20554;-51
2023/10/13 13:05:22;;;;;;;8.52;2.53;;;;;;;;;;5111172;28;20487;-54
2023/10/13 13:07:53;;;;;;;8.32;2.88;;;;;;;;;;5108483;28;20406;-56
2023/10/13 13:10:28;;;;;;;7.28;2.65;;;;;;;;;;5108578;28;20135;-51
2023/10/13 13:12:55;;;;;;;10.48;3.15;;;;;;;;;;5102054;28;20678;-56
2023/10/13 13:15:23;;;;;;;10.35;2.92;;;;;;;;;;5109128;28;20052;-53
2023/10/13 13:17:51;;;;;;;10.55;3.20;;;;;;;;;;5109150;28;20047;-57
2023/10/13 13:20:27;;;;;;;9.25;3.03;;;;;;;;;;5106801;28;20134;-55
2023/10/13 13:22:55;;;;;;;8.05;2.63;;;;;;;;;;5106603;28;20541;-53
2023/10/13 13:25:26;;;;;;;10.00;4.57;;;;;;;;;;5110748;28;20575;-53
2023/10/13 13:27:52;;;;;;;9.30;3.35;;;;;;;;;;5109614;28;20069;-53
2023/10/13 13:30:21;;;;;;;9.25;3.10;;;;;;;;;;5107914;28;20502;-56
2023/10/13 13:32:48;;;;;;;7.32;2.70;;;;;;;;;;5108495;28;20058;-56
2023/10/13 13:35:18;;;;;;;9.23;3.08;;;;;;;;;;5108800;27;20039;-53
2023/10/13 13:37:45;;;;;;;8.32;3.45;;;;;;;;;;5108905;28;20396;-56
2023/10/13 13:40:15;;;;;;;7.72;3.30;;;;;;;;;;5104943;28;20044;-54
2023/10/13 13:42:42;;;;;;;10.20;3.55;;;;;;;;;;5108989;28;20036;-54
2023/10/13 13:45:21;;;;;;;13.50;3.30;;;;;;;;;;5107899;28;20035;-56
2023/10/13 13:47:53;;;;;;;7.05;2.90;;;;;;;;;;5107640;28;20039;-54
2023/10/13 13:50:24;;;;;;;8.80;3.10;;;;;;;;;;5106244;28;20051;-53
2023/10/13 13:52:52;;;;;;;7.97;2.67;;;;;;;;;;5106375;28;20083;-57
2023/10/13 13:55:20;;;;;;;7.22;2.72;;;;;;;;;;5109831;28;20051;-53
2023/10/13 13:57:46;;;;;;;11.20;3.20;;;;;;;;;;5110028;28;20050;-51
2023/10/13 14:00:18;;;;;;;9.55;2.60;;;;;;;;;;5109677;28;20073;-53
2023/10/13 14:02:47;;;;;;;9.85;3.28;;;;;;;;;;5108508;28;20151;-56
2023/10/13 14:05:15;;;;;;;6.82;2.97;;;;;;;;;;5107643;28;20395;-53
2023/10/13 14:07:48;;;;;;;7.70;3.00;;;;;;;;;;5110058;28;20418;-53
2023/10/13 14:10:30;;;;;;;7.57;2.72;;;;;;;;;;5107693;28;20436;-54
2023/10/13 14:13:06;;;;;;;9.35;3.65;;;;;;;;;;5108954;28;20556;-53
2023/10/13 14:15:39;;;;;;;8.95;2.90;;;;;;;;;;5108168;28;20126;-51
2023/10/13 14:18:07;;;;;;;8.05;3.35;;;;;;;;;;5107927;28;20059;-52
2023/10/13 14:20:39;;;;;;;12.00;3.40;;;;;;;;;;5104749;28;20055;-51
2023/10/13 14:23:11;;;;;;;11.10;3.83;;;;;;;;;;5107150;28;20048;-56
2023/10/13 14:25:38;;;;;;;10.52;3.88;;;;;;;;;;5109499;28;20558;-54
2023/10/13 14:28:06;;;;;;;8.80;3.13;;;;;;;;;;5107518;28;20131;-52
2023/10/13 14:30:33;;;;;;;9.82;3.30;;;;;;;;;;5104504;28;20485;-56
2023/10/13 14:33:00;;;;;;;10.68;3.17;;;;;;;;;;5106580;28;20127;-56
2023/10/13 14:35:27;;;;;;;9.48;2.83;;;;;;;;;;5108889;28;20210;-55
2023/10/13 14:37:54;;;;;;;9.60;3.30;;;;;;;;;;5104634;28;20055;-56
2023/10/13 14:40:22;;;;;;;9.32;3.53;;;;;;;;;;5109046;28;20046;-55
2023/10/13 14:42:49;;;;;;;8.77;3.10;;;;;;;;;;5102078;28;20047;-56
2023/10/13 14:45:16;;;;;;;7.20;2.72;;;;;;;;;;5108807;28;20139;-56
2023/10/13 14:47:43;;;;;;;10.27;3.25;;;;;;;;;;5104497;28;20044;-52
2023/10/13 14:50:19;;;;;;;8.82;2.80;;;;;;;;;;5098223;28;20043;-53
2023/10/13 14:52:45;;;;;;;9.15;3.20;;;;;;;;;;5105541;28;20422;-52
2023/10/13 14:55:18;;;;;;;8.80;3.10;;;;;;;;;;5108105;28;20049;-58
2023/10/13 14:57:49;;;;;;;6.05;2.97;;;;;;;;;;5106426;28;20071;-58
2023/10/13 15:00:24;;;;;;;8.27;3.20;;;;;;;;;;5104490;28;20080;-55
2023/10/13 15:02:51;;;;;;;9.98;2.80;;;;;;;;;;5107599;28;20040;-54
2023/10/13 15:05:18;;;;;;;7.07;2.67;;;;;;;;;;5107490;28;20050;-55
2023/10/13 15:07:45;;;;;;;8.75;3.08;;;;;;;;;;5108662;28;20396;-54
2023/10/13 15:10:14;;;;;;;16.10;3.97;;;;;;;;;;5105787;28;20422;-57
2023/10/13 15:12:42;;;;;;;11.18;3.28;;;;;;;;;;5103849;28;20051;-54
2023/10/13 15:15:13;;;;;;;7.43;3.00;;;;;;;;;;5108309;28;20166;-51
2023/10/13 15:17:40;;;;;;;7.50;3.35;;;;;;;;;;5108692;28;20051;-54
2023/10/13 15:20:09;;;;;;;9.65;3.38;;;;;;;;;;5103611;28;20582;-53
2023/10/13 15:22:37;;;;;;;8.70;3.63;;;;;;;;;;5107578;28;20131;-55
2023/10/13 15:25:16;;;;;;;9.00;3.05;;;;;;;;;;5106522;28;20044;-55
2023/10/13 15:27:50;;;;;;;11.80;3.72;;;;;;;;;;5103296;28;20047;-51
2023/10/13 15:30:25;;;;;;;9.05;3.95;;;;;;;;;;5109444;28;20051;-55
2023/10/13 15:32:53;;;;;;;8.75;3.30;;;;;;;;;;5112299;28;20062;-54
2023/10/13 15:35:22;;;;;;;11.32;4.15;;;;;;;;;;5112229;28;20052;-55
2023/10/13 15:37:51;;;;;;;10.30;4.13;;;;;;;;;;5111157;28;20059;-53
2023/10/13 15:40:18;;;;;;;10.05;4.25;;;;;;;;;;5108100;28;20130;-54
2023/10/13 15:42:45;;;;;;;6.90;3.45;;;;;;;;;;5110845;28;20047;-53
2023/10/13 15:45:17;;;;;;;12.18;4.60;;;;;;;;;;5108515;28;20051;-54
2023/10/13 15:47:46;;;;;;;8.05;3.78;;;;;;;;;;5108664;28;20055;-55
2023/10/13 15:50:18;;;;;;;14.02;4.13;;;;;;;;;;5111165;28;20051;-57
2023/10/13 15:52:45;;;;;;;9.57;4.00;;;;;;;;;;5108349;28;20055;-54
2023/10/13 15:55:14;;;;;;;12.30;4.25;;;;;;;;;;5112388;28;20072;-57
2023/10/13 15:57:41;;;;;;;7.97;3.50;;;;;;;;;;5109951;28;20047;-54
2023/10/13 16:00:22;;;;;;;9.05;3.75;;;;;;;;;;5107398;28;20055;-55
2023/10/13 16:02:52;;;;;;;10.30;4.03;;;;;;;;;;5111891;28;20044;-53
2023/10/13 16:05:19;;;;;;;10.43;4.70;;;;;;;;;;5108156;28;20051;-53
2023/10/13 16:07:46;;;;;;;9.27;3.70;;;;;;;;;;5110753;28;20094;-52
2023/10/13 16:10:13;;;;;;;9.05;4.00;;;;;;;;;;5107959;28;20052;-54
2023/10/13 16:12:39;;;;;;;16.77;7.20;;;;;;;;;;5111281;28;20146;-50
2023/10/13 16:15:08;;;;;;;17.25;8.00;;;;;;;;;;5111299;28;20047;-54
2023/10/13 16:17:38;;;;;;;17.60;7.55;;;;;;;;;;5108230;28;20044;-56
2023/10/13 16:20:15;;;;;;;12.60;6.43;;;;;;;;;;5109266;28;20101;-54
2023/10/13 16:22:44;;;;;;;13.65;6.32;;;;;;;;;;5107944;28;20073;-51
2023/10/13 16:25:12;;;;;;;16.17;8.68;;;;;;;;;;5109915;28;20044;-52
2023/10/13 16:27:40;;;;;;;10.18;5.07;;;;;;;;;;5109071;28;20051;-50
2023/10/13 16:30:09;;;;;;;14.73;6.88;;;;;;;;;;5110845;28;20057;-55
2023/10/13 16:32:36;;;;;;;21.83;10.80;;;;;;;;;;5109035;28;20490;-55
2023/10/13 16:35:06;;;;;;;34.67;13.70;;;;;;;;;;5101368;28;20135;-51
2023/10/13 16:37:33;;;;;;;23.08;9.80;;;;;;;;;;5111485;28;20039;-55
2023/10/13 16:40:04;;;;;;;17.20;6.70;;;;;;;;;;5105934;28;20057;-58
2023/10/13 16:42:33;;;;;;;12.38;5.70;;;;;;;;;;5107134;28;20043;-55
2023/10/13 16:45:14;;;;;;;15.43;7.65;;;;;;;;;;5110988;28;20040;-51
2023/10/13 16:47:42;;;;;;;15.63;7.57;;;;;;;;;;5107663;28;20085;-52
2023/10/13 16:50:11;;;;;;;13.07;6.13;;;;;;;;;;5106973;28;20082;-55
2023/10/13 16:52:37;;;;;;;13.02;6.75;;;;;;;;;;5107960;28;20127;-50
2023/10/13 16:55:05;;;;;;;11.77;6.35;;;;;;;;;;5111129;28;20043;-50
2023/10/13 16:57:31;;;;;;;13.02;7.70;;;;;;;;;;5108761;28;20083;-53
2023/10/13 16:59:58;;;;;;;17.20;7.65;;;;;;;;;;5111115;28;20555;-54